New Lebanon, New York
Current Conditions -  °F | °C
As of 1:12 PM on Wednesday 26 Nov 2014 (Local Time) from KPSF Reporting Station
Moderate Snow Moderate Snow  
Wind Chill: 26°   Ceiling: NA
Heat Index: 32°   Visibility: 0.5mi
Dew Point: 31°   Wind: 6mph
Humidity: 96%   Direction: 340°NNW
Pressure: 30.02"   Gusts: NA
Location:  42.46°N, 73.4°W
Report Text: KPSF 261812Z AUTO 34005KT 1/2SM SN FG 00/M01 A3002 RMK AO2 P0002 T00001006 $
Loading
Personal Weather Stations






























Interactive Weather Map New forecast layout! Learn more

10-Day Weather Forecast

Advertisements
Track Severe Weather on mobile